sensor_id;sensor_type;location;lat;lon;timestamp;P1;durP1;ratioP1;P2;durP2;ratioP2
64714;SDS011;51144;53.002;6.506;2022-11-04T00:01:41;12.82;;;10.65;;
64714;SDS011;51144;53.002;6.506;2022-11-04T00:04:08;12.00;;;10.82;;
64714;SDS011;51144;53.002;6.506;2022-11-04T00:06:35;13.07;;;10.68;;
64714;SDS011;51144;53.002;6.506;2022-11-04T00:09:02;15.25;;;11.57;;
64714;SDS011;51144;53.002;6.506;2022-11-04T00:11:29;12.57;;;11.02;;
64714;SDS011;51144;53.002;6.506;2022-11-04T00:16:39;11.82;;;10.45;;
64714;SDS011;51144;53.002;6.506;2022-11-04T00:19:24;12.40;;;11.23;;
64714;SDS011;51144;53.002;6.506;2022-11-04T00:21:50;11.95;;;9.30;;
64714;SDS011;51144;53.002;6.506;2022-11-04T00:24:34;8.63;;;4.82;;
64714;SDS011;51144;53.002;6.506;2022-11-04T00:27:09;4.22;;;2.80;;
64714;SDS011;51144;53.002;6.506;2022-11-04T00:29:55;6.05;;;2.95;;
64714;SDS011;51144;53.002;6.506;2022-11-04T00:32:21;5.85;;;2.38;;
64714;SDS011;51144;53.002;6.506;2022-11-04T00:35:06;2.90;;;2.20;;
64714;SDS011;51144;53.002;6.506;2022-11-04T00:37:36;4.40;;;2.25;;
64714;SDS011;51144;53.002;6.506;2022-11-04T00:40:03;2.42;;;1.30;;
64714;SDS011;51144;53.002;6.506;2022-11-04T00:42:29;3.13;;;1.63;;
64714;SDS011;51144;53.002;6.506;2022-11-04T00:44:55;2.83;;;1.48;;
64714;SDS011;51144;53.002;6.506;2022-11-04T00:47:20;2.40;;;1.77;;
64714;SDS011;51144;53.002;6.506;2022-11-04T00:49:46;5.22;;;1.75;;
64714;SDS011;51144;53.002;6.506;2022-11-04T00:52:12;3.00;;;0.70;;
64714;SDS011;51144;53.002;6.506;2022-11-04T00:54:37;2.47;;;0.90;;
64714;SDS011;51144;53.002;6.506;2022-11-04T00:57:03;3.13;;;0.90;;
64714;SDS011;51144;53.002;6.506;2022-11-04T00:59:28;3.05;;;0.60;;
64714;SDS011;51144;53.002;6.506;2022-11-04T01:01:54;2.65;;;0.50;;
64714;SDS011;51144;53.002;6.506;2022-11-04T01:04:20;1.33;;;0.32;;
64714;SDS011;51144;53.002;6.506;2022-11-04T01:06:45;3.47;;;0.25;;
64714;SDS011;51144;53.002;6.506;2022-11-04T01:09:11;2.22;;;0.30;;
64714;SDS011;51144;53.002;6.506;2022-11-04T01:11:38;4.15;;;0.22;;
64714;SDS011;51144;53.002;6.506;2022-11-04T01:14:04;3.80;;;0.30;;
64714;SDS011;51144;53.002;6.506;2022-11-04T01:16:30;1.15;;;0.30;;
64714;SDS011;51144;53.002;6.506;2022-11-04T01:18:55;3.42;;;0.20;;
64714;SDS011;51144;53.002;6.506;2022-11-04T01:21:21;0.80;;;0.20;;
64714;SDS011;51144;53.002;6.506;2022-11-04T01:23:47;2.70;;;0.30;;
64714;SDS011;51144;53.002;6.506;2022-11-04T01:26:14;1.83;;;0.20;;
64714;SDS011;51144;53.002;6.506;2022-11-04T01:28:42;2.55;;;0.32;;
64714;SDS011;51144;53.002;6.506;2022-11-04T01:31:12;2.58;;;0.10;;
64714;SDS011;51144;53.002;6.506;2022-11-04T01:33:40;2.95;;;0.10;;
64714;SDS011;51144;53.002;6.506;2022-11-04T01:36:06;2.03;;;0.10;;
64714;SDS011;51144;53.002;6.506;2022-11-04T01:38:33;1.73;;;0.10;;
64714;SDS011;51144;53.002;6.506;2022-11-04T01:40:59;3.38;;;0.17;;
64714;SDS011;51144;53.002;6.506;2022-11-04T01:46:09;2.88;;;0.10;;
64714;SDS011;51144;53.002;6.506;2022-11-04T01:48:43;2.70;;;0.10;;
64714;SDS011;51144;53.002;6.506;2022-11-04T01:51:08;0.20;;;0.05;;
64714;SDS011;51144;53.002;6.506;2022-11-04T01:53:36;2.78;;;0.13;;
64714;SDS011;51144;53.002;6.506;2022-11-04T01:56:04;5.03;;;0.10;;
64714;SDS011;51144;53.002;6.506;2022-11-04T01:58:36;3.30;;;0.10;;
64714;SDS011;51144;53.002;6.506;2022-11-04T02:01:04;1.88;;;0.10;;
64714;SDS011;51144;53.002;6.506;2022-11-04T02:03:32;2.53;;;0.10;;
64714;SDS011;51144;53.002;6.506;2022-11-04T02:06:00;5.45;;;0.10;;
64714;SDS011;51144;53.002;6.506;2022-11-04T02:08:27;4.32;;;0.10;;
64714;SDS011;51144;53.002;6.506;2022-11-04T02:10:56;5.18;;;0.30;;
64714;SDS011;51144;53.002;6.506;2022-11-04T02:13:23;1.80;;;0.10;;
64714;SDS011;51144;53.002;6.506;2022-11-04T02:15:56;7.60;;;0.10;;
64714;SDS011;51144;53.002;6.506;2022-11-04T02:30:25;2.40;;;0.65;;
64714;SDS011;51144;53.002;6.506;2022-11-04T02:33:16;8.45;;;0.10;;
64714;SDS011;51144;53.002;6.506;2022-11-04T02:46:36;6.43;;;0.10;;
64714;SDS011;51144;53.002;6.506;2022-11-04T02:49:06;4.30;;;0.20;;
64714;SDS011;51144;53.002;6.506;2022-11-04T02:51:38;0.68;;;0.00;;
64714;SDS011;51144;53.002;6.506;2022-11-04T02:54:13;5.95;;;0.82;;
64714;SDS011;51144;53.002;6.506;2022-11-04T02:56:47;2.03;;;0.10;;
64714;SDS011;51144;53.002;6.506;2022-11-04T02:59:18;5.00;;;0.10;;
64714;SDS011;51144;53.002;6.506;2022-11-04T03:01:48;3.00;;;0.00;;
64714;SDS011;51144;53.002;6.506;2022-11-04T03:04:17;0.90;;;0.30;;
64714;SDS011;51144;53.002;6.506;2022-11-04T03:06:48;1.98;;;0.00;;
64714;SDS011;51144;53.002;6.506;2022-11-04T03:09:16;0.52;;;0.00;;
64714;SDS011;51144;53.002;6.506;2022-11-04T03:11:46;2.17;;;0.10;;
64714;SDS011;51144;53.002;6.506;2022-11-04T03:14:36;2.05;;;0.10;;
64714;SDS011;51144;53.002;6.506;2022-11-04T03:17:18;0.95;;;0.10;;
64714;SDS011;51144;53.002;6.506;2022-11-04T03:19:57;0.22;;;0.10;;
64714;SDS011;51144;53.002;6.506;2022-11-04T03:22:24;1.40;;;0.20;;
64714;SDS011;51144;53.002;6.506;2022-11-04T03:24:53;1.75;;;0.10;;
64714;SDS011;51144;53.002;6.506;2022-11-04T03:27:24;2.15;;;0.20;;
64714;SDS011;51144;53.002;6.506;2022-11-04T03:30:10;3.55;;;0.20;;
64714;SDS011;51144;53.002;6.506;2022-11-04T03:32:57;1.35;;;0.22;;
64714;SDS011;51144;53.002;6.506;2022-11-04T03:35:29;3.25;;;0.20;;
64714;SDS011;51144;53.002;6.506;2022-11-04T03:37:55;4.25;;;0.20;;
64714;SDS011;51144;53.002;6.506;2022-11-04T03:40:21;3.92;;;0.30;;
64714;SDS011;51144;53.002;6.506;2022-11-04T03:42:59;3.83;;;0.10;;
64714;SDS011;51144;53.002;6.506;2022-11-04T03:45:31;4.60;;;0.43;;
64714;SDS011;51144;53.002;6.506;2022-11-04T03:47:57;1.95;;;0.20;;
64714;SDS011;51144;53.002;6.506;2022-11-04T03:50:28;4.13;;;0.30;;
64714;SDS011;51144;53.002;6.506;2022-11-04T03:52:55;3.60;;;0.30;;
64714;SDS011;51144;53.002;6.506;2022-11-04T04:06:26;3.15;;;0.10;;
64714;SDS011;51144;53.002;6.506;2022-11-04T04:08:56;1.27;;;0.10;;
64714;SDS011;51144;53.002;6.506;2022-11-04T04:11:37;6.30;;;0.10;;
64714;SDS011;51144;53.002;6.506;2022-11-04T04:16:58;0.90;;;0.30;;
64714;SDS011;51144;53.002;6.506;2022-11-04T04:19:26;2.45;;;0.10;;
64714;SDS011;51144;53.002;6.506;2022-11-04T04:21:55;2.17;;;0.10;;
64714;SDS011;51144;53.002;6.506;2022-11-04T04:24:27;4.72;;;0.20;;
64714;SDS011;51144;53.002;6.506;2022-11-04T04:27:18;3.08;;;0.25;;
64714;SDS011;51144;53.002;6.506;2022-11-04T04:32:54;2.30;;;0.10;;
64714;SDS011;51144;53.002;6.506;2022-11-04T04:35:28;3.63;;;0.10;;
64714;SDS011;51144;53.002;6.506;2022-11-04T04:38:21;5.15;;;0.47;;
64714;SDS011;51144;53.002;6.506;2022-11-04T04:41:12;2.45;;;0.08;;
64714;SDS011;51144;53.002;6.506;2022-11-04T04:44:14;5.38;;;0.10;;
64714;SDS011;51144;53.002;6.506;2022-11-04T04:47:08;4.57;;;0.10;;
64714;SDS011;51144;53.002;6.506;2022-11-04T04:49:44;3.92;;;0.10;;
64714;SDS011;51144;53.002;6.506;2022-11-04T04:52:24;4.82;;;0.10;;
64714;SDS011;51144;53.002;6.506;2022-11-04T04:54:56;2.47;;;0.10;;
64714;SDS011;51144;53.002;6.506;2022-11-04T04:57:22;3.22;;;0.10;;
64714;SDS011;51144;53.002;6.506;2022-11-04T04:59:47;0.85;;;0.00;;
64714;SDS011;51144;53.002;6.506;2022-11-04T05:02:13;5.75;;;0.10;;
64714;SDS011;51144;53.002;6.506;2022-11-04T05:04:39;2.38;;;0.08;;
64714;SDS011;51144;53.002;6.506;2022-11-04T05:07:04;1.95;;;0.10;;
64714;SDS011;51144;53.002;6.506;2022-11-04T05:09:32;5.57;;;0.10;;
64714;SDS011;51144;53.002;6.506;2022-11-04T05:11:57;2.85;;;0.10;;
64714;SDS011;51144;53.002;6.506;2022-11-04T05:14:23;3.95;;;0.13;;
64714;SDS011;51144;53.002;6.506;2022-11-04T05:16:49;4.18;;;0.10;;
64714;SDS011;51144;53.002;6.506;2022-11-04T05:19:14;2.17;;;0.10;;
64714;SDS011;51144;53.002;6.506;2022-11-04T05:21:40;3.40;;;0.10;;
64714;SDS011;51144;53.002;6.506;2022-11-04T05:24:06;4.43;;;0.10;;
64714;SDS011;51144;53.002;6.506;2022-11-04T05:26:31;2.40;;;0.10;;
64714;SDS011;51144;53.002;6.506;2022-11-04T05:28:57;4.85;;;0.10;;
64714;SDS011;51144;53.002;6.506;2022-11-04T05:31:22;2.70;;;0.20;;
64714;SDS011;51144;53.002;6.506;2022-11-04T05:33:48;1.50;;;0.10;;
64714;SDS011;51144;53.002;6.506;2022-11-04T05:36:14;2.67;;;0.10;;
64714;SDS011;51144;53.002;6.506;2022-11-04T05:38:41;2.88;;;0.10;;
64714;SDS011;51144;53.002;6.506;2022-11-04T05:41:07;2.95;;;0.10;;
64714;SDS011;51144;53.002;6.506;2022-11-04T05:43:35;4.57;;;0.20;;
64714;SDS011;51144;53.002;6.506;2022-11-04T05:46:00;2.33;;;0.40;;
64714;SDS011;51144;53.002;6.506;2022-11-04T05:48:26;5.07;;;0.10;;
64714;SDS011;51144;53.002;6.506;2022-11-04T05:50:53;2.20;;;0.20;;
64714;SDS011;51144;53.002;6.506;2022-11-04T05:53:19;1.35;;;0.10;;
64714;SDS011;51144;53.002;6.506;2022-11-04T05:55:44;2.55;;;0.20;;
64714;SDS011;51144;53.002;6.506;2022-11-04T05:58:10;3.13;;;0.20;;
64714;SDS011;51144;53.002;6.506;2022-11-04T06:00:36;2.78;;;0.03;;
64714;SDS011;51144;53.002;6.506;2022-11-04T06:03:01;3.83;;;0.10;;
64714;SDS011;51144;53.002;6.506;2022-11-04T06:05:27;4.25;;;0.10;;
64714;SDS011;51144;53.002;6.506;2022-11-04T06:07:53;2.22;;;0.13;;
64714;SDS011;51144;53.002;6.506;2022-11-04T06:10:20;1.60;;;0.10;;
64714;SDS011;51144;53.002;6.506;2022-11-04T06:12:45;2.95;;;0.20;;
64714;SDS011;51144;53.002;6.506;2022-11-04T06:15:11;0.65;;;0.10;;
64714;SDS011;51144;53.002;6.506;2022-11-04T06:17:37;2.63;;;0.10;;
64714;SDS011;51144;53.002;6.506;2022-11-04T06:20:03;1.42;;;0.10;;
64714;SDS011;51144;53.002;6.506;2022-11-04T06:22:30;2.30;;;0.10;;
64714;SDS011;51144;53.002;6.506;2022-11-04T06:24:55;4.50;;;0.95;;
64714;SDS011;51144;53.002;6.506;2022-11-04T06:27:21;3.35;;;0.10;;
64714;SDS011;51144;53.002;6.506;2022-11-04T06:29:47;3.17;;;0.10;;
64714;SDS011;51144;53.002;6.506;2022-11-04T06:32:14;3.10;;;0.10;;
64714;SDS011;51144;53.002;6.506;2022-11-04T06:34:41;3.50;;;0.25;;
64714;SDS011;51144;53.002;6.506;2022-11-04T06:37:07;1.52;;;0.20;;
64714;SDS011;51144;53.002;6.506;2022-11-04T06:39:34;2.35;;;0.10;;
64714;SDS011;51144;53.002;6.506;2022-11-04T06:42:00;1.13;;;0.10;;
64714;SDS011;51144;53.002;6.506;2022-11-04T06:44:25;7.57;;;0.25;;
64714;SDS011;51144;53.002;6.506;2022-11-04T06:46:51;2.50;;;0.10;;
64714;SDS011;51144;53.002;6.506;2022-11-04T06:49:18;2.72;;;0.32;;
64714;SDS011;51144;53.002;6.506;2022-11-04T06:51:45;2.30;;;0.13;;
64714;SDS011;51144;53.002;6.506;2022-11-04T06:54:12;3.42;;;0.20;;
64714;SDS011;51144;53.002;6.506;2022-11-04T06:56:39;5.05;;;0.10;;
64714;SDS011;51144;53.002;6.506;2022-11-04T06:59:05;1.05;;;0.10;;
64714;SDS011;51144;53.002;6.506;2022-11-04T07:01:32;1.38;;;0.13;;
64714;SDS011;51144;53.002;6.506;2022-11-04T07:03:59;2.03;;;0.10;;
64714;SDS011;51144;53.002;6.506;2022-11-04T07:06:26;1.85;;;0.10;;
64714;SDS011;51144;53.002;6.506;2022-11-04T07:08:54;4.07;;;0.30;;
64714;SDS011;51144;53.002;6.506;2022-11-04T07:11:22;1.58;;;0.10;;
64714;SDS011;51144;53.002;6.506;2022-11-04T07:13:49;3.30;;;0.22;;
64714;SDS011;51144;53.002;6.506;2022-11-04T07:16:15;1.65;;;0.30;;
64714;SDS011;51144;53.002;6.506;2022-11-04T07:18:42;1.40;;;0.20;;
64714;SDS011;51144;53.002;6.506;2022-11-04T07:21:08;2.97;;;0.15;;
64714;SDS011;51144;53.002;6.506;2022-11-04T07:23:34;1.25;;;0.10;;
64714;SDS011;51144;53.002;6.506;2022-11-04T07:26:00;1.45;;;0.10;;
64714;SDS011;51144;53.002;6.506;2022-11-04T07:28:27;1.40;;;0.10;;
64714;SDS011;51144;53.002;6.506;2022-11-04T07:30:56;3.97;;;0.20;;
64714;SDS011;51144;53.002;6.506;2022-11-04T07:33:23;1.75;;;0.20;;
64714;SDS011;51144;53.002;6.506;2022-11-04T07:35:49;2.88;;;0.30;;
64714;SDS011;51144;53.002;6.506;2022-11-04T07:38:15;1.23;;;0.30;;
64714;SDS011;51144;53.002;6.506;2022-11-04T07:40:41;4.43;;;0.30;;
64714;SDS011;51144;53.002;6.506;2022-11-04T07:43:06;2.22;;;0.20;;
64714;SDS011;51144;53.002;6.506;2022-11-04T07:45:32;1.83;;;0.20;;
64714;SDS011;51144;53.002;6.506;2022-11-04T07:47:58;2.95;;;0.20;;
64714;SDS011;51144;53.002;6.506;2022-11-04T07:50:23;2.60;;;0.50;;
64714;SDS011;51144;53.002;6.506;2022-11-04T07:52:49;3.67;;;0.20;;
64714;SDS011;51144;53.002;6.506;2022-11-04T07:55:17;0.77;;;0.20;;
64714;SDS011;51144;53.002;6.506;2022-11-04T07:57:44;3.30;;;0.60;;
64714;SDS011;51144;53.002;6.506;2022-11-04T08:00:10;2.40;;;0.28;;
64714;SDS011;51144;53.002;6.506;2022-11-04T08:02:36;4.15;;;0.20;;
64714;SDS011;51144;53.002;6.506;2022-11-04T08:05:02;0.93;;;0.30;;
64714;SDS011;51144;53.002;6.506;2022-11-04T08:07:30;7.60;;;1.08;;
64714;SDS011;51144;53.002;6.506;2022-11-04T08:09:56;2.72;;;0.40;;
64714;SDS011;51144;53.002;6.506;2022-11-04T08:12:21;3.33;;;0.30;;
64714;SDS011;51144;53.002;6.506;2022-11-04T08:14:48;1.42;;;0.28;;
64714;SDS011;51144;53.002;6.506;2022-11-04T08:17:14;2.70;;;0.30;;
64714;SDS011;51144;53.002;6.506;2022-11-04T08:19:40;1.27;;;0.30;;
64714;SDS011;51144;53.002;6.506;2022-11-04T08:22:06;2.63;;;0.50;;
64714;SDS011;51144;53.002;6.506;2022-11-04T08:24:32;2.67;;;0.30;;
64714;SDS011;51144;53.002;6.506;2022-11-04T08:26:59;2.90;;;0.30;;
64714;SDS011;51144;53.002;6.506;2022-11-04T08:29:24;1.33;;;0.30;;
64714;SDS011;51144;53.002;6.506;2022-11-04T08:31:50;1.60;;;0.30;;
64714;SDS011;51144;53.002;6.506;2022-11-04T08:34:16;1.52;;;0.30;;
64714;SDS011;51144;53.002;6.506;2022-11-04T08:36:42;4.15;;;0.40;;
64714;SDS011;51144;53.002;6.506;2022-11-04T08:39:10;2.17;;;0.40;;
64714;SDS011;51144;53.002;6.506;2022-11-04T08:41:37;1.42;;;0.43;;
64714;SDS011;51144;53.002;6.506;2022-11-04T08:44:05;2.65;;;0.45;;
64714;SDS011;51144;53.002;6.506;2022-11-04T08:46:33;2.33;;;0.20;;
64714;SDS011;51144;53.002;6.506;2022-11-04T08:49:00;5.50;;;0.70;;
64714;SDS011;51144;53.002;6.506;2022-11-04T08:51:26;2.58;;;0.30;;
64714;SDS011;51144;53.002;6.506;2022-11-04T08:53:53;2.67;;;0.20;;
64714;SDS011;51144;53.002;6.506;2022-11-04T08:56:21;2.33;;;0.30;;
64714;SDS011;51144;53.002;6.506;2022-11-04T08:58:51;2.38;;;0.40;;
64714;SDS011;51144;53.002;6.506;2022-11-04T09:01:17;5.50;;;0.20;;
64714;SDS011;51144;53.002;6.506;2022-11-04T09:03:44;3.50;;;0.40;;
64714;SDS011;51144;53.002;6.506;2022-11-04T09:06:11;2.30;;;0.20;;
64714;SDS011;51144;53.002;6.506;2022-11-04T09:08:39;1.58;;;0.20;;
64714;SDS011;51144;53.002;6.506;2022-11-04T09:11:06;4.13;;;0.30;;
64714;SDS011;51144;53.002;6.506;2022-11-04T09:13:32;0.85;;;0.10;;
64714;SDS011;51144;53.002;6.506;2022-11-04T09:15:58;1.42;;;0.15;;
64714;SDS011;51144;53.002;6.506;2022-11-04T09:18:24;2.17;;;0.20;;
64714;SDS011;51144;53.002;6.506;2022-11-04T09:20:49;3.13;;;0.30;;
64714;SDS011;51144;53.002;6.506;2022-11-04T09:23:15;2.10;;;0.30;;
64714;SDS011;51144;53.002;6.506;2022-11-04T09:25:41;1.63;;;0.10;;
64714;SDS011;51144;53.002;6.506;2022-11-04T09:28:06;2.85;;;0.20;;
64714;SDS011;51144;53.002;6.506;2022-11-04T09:30:32;5.78;;;0.30;;
64714;SDS011;51144;53.002;6.506;2022-11-04T09:32:58;2.22;;;0.32;;
64714;SDS011;51144;53.002;6.506;2022-11-04T09:35:24;3.40;;;0.10;;
64714;SDS011;51144;53.002;6.506;2022-11-04T09:37:51;1.38;;;0.15;;
64714;SDS011;51144;53.002;6.506;2022-11-04T09:40:18;1.90;;;0.40;;
64714;SDS011;51144;53.002;6.506;2022-11-04T09:45:49;4.38;;;0.20;;
64714;SDS011;51144;53.002;6.506;2022-11-04T09:48:35;1.95;;;0.20;;
64714;SDS011;51144;53.002;6.506;2022-11-04T09:51:15;1.75;;;0.20;;
64714;SDS011;51144;53.002;6.506;2022-11-04T09:53:51;4.63;;;0.10;;
64714;SDS011;51144;53.002;6.506;2022-11-04T09:56:28;2.40;;;0.10;;
64714;SDS011;51144;53.002;6.506;2022-11-04T09:59:02;1.70;;;0.17;;
64714;SDS011;51144;53.002;6.506;2022-11-04T10:07:22;5.70;;;0.20;;
64714;SDS011;51144;53.002;6.506;2022-11-04T10:13:07;5.90;;;0.47;;
64714;SDS011;51144;53.002;6.506;2022-11-04T10:27:32;4.80;;;0.50;;
64714;SDS011;51144;53.002;6.506;2022-11-04T10:40:48;3.05;;;0.15;;
64714;SDS011;51144;53.002;6.506;2022-11-04T10:43:25;1.90;;;0.65;;
64714;SDS011;51144;53.002;6.506;2022-11-04T10:52:02;5.50;;;0.38;;
64714;SDS011;51144;53.002;6.506;2022-11-04T10:54:32;1.77;;;0.20;;
64714;SDS011;51144;53.002;6.506;2022-11-04T10:57:02;2.55;;;0.22;;
64714;SDS011;51144;53.002;6.506;2022-11-04T10:59:29;4.28;;;0.38;;
64714;SDS011;51144;53.002;6.506;2022-11-04T11:02:11;3.97;;;0.25;;
64714;SDS011;51144;53.002;6.506;2022-11-04T11:04:37;5.05;;;0.70;;
64714;SDS011;51144;53.002;6.506;2022-11-04T11:07:05;4.63;;;0.35;;
64714;SDS011;51144;53.002;6.506;2022-11-04T11:09:36;2.58;;;0.25;;
64714;SDS011;51144;53.002;6.506;2022-11-04T11:14:38;5.50;;;0.30;;
64714;SDS011;51144;53.002;6.506;2022-11-04T11:19:57;2.75;;;0.22;;
64714;SDS011;51144;53.002;6.506;2022-11-04T11:22:34;1.10;;;0.20;;
64714;SDS011;51144;53.002;6.506;2022-11-04T11:27:49;5.80;;;0.75;;
64714;SDS011;51144;53.002;6.506;2022-11-04T11:30:29;2.00;;;0.43;;
64714;SDS011;51144;53.002;6.506;2022-11-04T11:33:30;4.15;;;0.22;;
64714;SDS011;51144;53.002;6.506;2022-11-04T11:36:05;3.67;;;0.30;;
64714;SDS011;51144;53.002;6.506;2022-11-04T11:38:49;2.47;;;0.20;;
64714;SDS011;51144;53.002;6.506;2022-11-04T11:41:25;4.43;;;0.35;;
64714;SDS011;51144;53.002;6.506;2022-11-04T11:46:55;2.67;;;0.20;;
64714;SDS011;51144;53.002;6.506;2022-11-04T11:49:43;1.58;;;0.10;;
64714;SDS011;51144;53.002;6.506;2022-11-04T11:52:20;3.20;;;0.10;;
64714;SDS011;51144;53.002;6.506;2022-11-04T11:54:51;2.13;;;0.10;;
64714;SDS011;51144;53.002;6.506;2022-11-04T11:57:25;2.08;;;0.22;;
64714;SDS011;51144;53.002;6.506;2022-11-04T12:00:04;3.00;;;0.10;;
64714;SDS011;51144;53.002;6.506;2022-11-04T12:05:22;2.72;;;0.10;;
64714;SDS011;51144;53.002;6.506;2022-11-04T12:08:02;0.80;;;0.10;;
64714;SDS011;51144;53.002;6.506;2022-11-04T12:10:55;2.58;;;0.10;;
64714;SDS011;51144;53.002;6.506;2022-11-04T12:13:43;1.20;;;0.10;;
64714;SDS011;51144;53.002;6.506;2022-11-04T12:16:25;5.25;;;0.10;;
64714;SDS011;51144;53.002;6.506;2022-11-04T12:19:06;3.80;;;0.63;;
64714;SDS011;51144;53.002;6.506;2022-11-04T12:24:33;5.00;;;0.25;;
64714;SDS011;51144;53.002;6.506;2022-11-04T12:38:12;2.28;;;0.10;;
64714;SDS011;51144;53.002;6.506;2022-11-04T12:59:49;2.92;;;0.20;;
64714;SDS011;51144;53.002;6.506;2022-11-04T13:02:25;3.85;;;0.10;;
64714;SDS011;51144;53.002;6.506;2022-11-04T13:08:04;1.75;;;0.10;;
64714;SDS011;51144;53.002;6.506;2022-11-04T13:13:06;2.67;;;0.30;;
64714;SDS011;51144;53.002;6.506;2022-11-04T13:15:37;2.45;;;0.20;;
64714;SDS011;51144;53.002;6.506;2022-11-04T13:18:15;1.90;;;0.20;;
64714;SDS011;51144;53.002;6.506;2022-11-04T13:23:22;1.65;;;0.10;;
64714;SDS011;51144;53.002;6.506;2022-11-04T13:25:52;4.22;;;0.30;;
64714;SDS011;51144;53.002;6.506;2022-11-04T13:28:19;1.17;;;0.30;;
64714;SDS011;51144;53.002;6.506;2022-11-04T13:30:57;4.20;;;0.28;;
64714;SDS011;51144;53.002;6.506;2022-11-04T13:39:17;2.83;;;0.28;;
64714;SDS011;51144;53.002;6.506;2022-11-04T13:44:23;4.57;;;0.38;;
64714;SDS011;51144;53.002;6.506;2022-11-04T13:47:02;2.95;;;0.60;;
64714;SDS011;51144;53.002;6.506;2022-11-04T13:49:30;4.88;;;0.43;;
64714;SDS011;51144;53.002;6.506;2022-11-04T13:52:10;4.30;;;0.43;;
64714;SDS011;51144;53.002;6.506;2022-11-04T14:18:33;6.03;;;0.20;;
64714;SDS011;51144;53.002;6.506;2022-11-04T14:21:22;5.15;;;0.50;;
64714;SDS011;51144;53.002;6.506;2022-11-04T14:23:49;5.35;;;0.20;;
64714;SDS011;51144;53.002;6.506;2022-11-04T14:26:17;6.50;;;0.50;;
64714;SDS011;51144;53.002;6.506;2022-11-04T14:28:46;3.42;;;0.55;;
64714;SDS011;51144;53.002;6.506;2022-11-04T14:31:36;10.43;;;1.20;;
64714;SDS011;51144;53.002;6.506;2022-11-04T14:34:04;3.22;;;0.30;;
64714;SDS011;51144;53.002;6.506;2022-11-04T14:36:35;5.90;;;0.63;;
64714;SDS011;51144;53.002;6.506;2022-11-04T14:49:17;5.85;;;0.20;;
64714;SDS011;51144;53.002;6.506;2022-11-04T15:05:31;10.02;;;0.35;;
64714;SDS011;51144;53.002;6.506;2022-11-04T15:08:01;8.10;;;0.38;;
64714;SDS011;51144;53.002;6.506;2022-11-04T15:10:47;3.67;;;0.73;;
64714;SDS011;51144;53.002;6.506;2022-11-04T15:13:17;5.72;;;0.40;;
64714;SDS011;51144;53.002;6.506;2022-11-04T15:15:43;8.32;;;0.40;;
64714;SDS011;51144;53.002;6.506;2022-11-04T15:18:15;7.40;;;0.95;;
64714;SDS011;51144;53.002;6.506;2022-11-04T15:20:50;5.68;;;0.47;;
64714;SDS011;51144;53.002;6.506;2022-11-04T15:23:38;3.78;;;0.70;;
64714;SDS011;51144;53.002;6.506;2022-11-04T15:26:13;7.75;;;0.50;;
64714;SDS011;51144;53.002;6.506;2022-11-04T15:29:02;5.20;;;0.40;;
64714;SDS011;51144;53.002;6.506;2022-11-04T15:31:34;3.58;;;0.30;;
64714;SDS011;51144;53.002;6.506;2022-11-04T15:34:01;6.03;;;0.50;;
64714;SDS011;51144;53.002;6.506;2022-11-04T15:36:34;5.90;;;0.28;;
64714;SDS011;51144;53.002;6.506;2022-11-04T15:39:06;18.52;;;0.88;;
64714;SDS011;51144;53.002;6.506;2022-11-04T15:41:43;4.60;;;0.60;;
64714;SDS011;51144;53.002;6.506;2022-11-04T15:44:29;6.03;;;0.50;;
64714;SDS011;51144;53.002;6.506;2022-11-04T15:46:57;5.32;;;0.70;;
64714;SDS011;51144;53.002;6.506;2022-11-04T15:49:29;3.05;;;0.52;;
64714;SDS011;51144;53.002;6.506;2022-11-04T15:52:00;7.00;;;0.47;;
64714;SDS011;51144;53.002;6.506;2022-11-04T15:54:32;6.68;;;0.88;;
64714;SDS011;51144;53.002;6.506;2022-11-04T15:57:12;9.38;;;0.75;;
64714;SDS011;51144;53.002;6.506;2022-11-04T15:59:38;4.10;;;0.40;;
64714;SDS011;51144;53.002;6.506;2022-11-04T16:02:21;8.75;;;0.35;;
64714;SDS011;51144;53.002;6.506;2022-11-04T16:07:40;9.15;;;1.00;;
64714;SDS011;51144;53.002;6.506;2022-11-04T16:17:56;7.70;;;1.08;;
64714;SDS011;51144;53.002;6.506;2022-11-04T16:20:22;8.10;;;0.70;;
64714;SDS011;51144;53.002;6.506;2022-11-04T16:22:53;4.53;;;0.60;;
64714;SDS011;51144;53.002;6.506;2022-11-04T16:25:21;8.23;;;1.42;;
64714;SDS011;51144;53.002;6.506;2022-11-04T16:27:47;6.30;;;1.10;;
64714;SDS011;51144;53.002;6.506;2022-11-04T16:30:18;8.40;;;1.25;;
64714;SDS011;51144;53.002;6.506;2022-11-04T16:35:22;8.73;;;0.95;;
64714;SDS011;51144;53.002;6.506;2022-11-04T16:37:50;9.32;;;0.82;;
64714;SDS011;51144;53.002;6.506;2022-11-04T16:40:16;8.68;;;1.30;;
64714;SDS011;51144;53.002;6.506;2022-11-04T16:42:43;13.10;;;4.20;;
64714;SDS011;51144;53.002;6.506;2022-11-04T16:45:18;6.97;;;1.20;;
64714;SDS011;51144;53.002;6.506;2022-11-04T16:47:49;13.82;;;6.03;;
64714;SDS011;51144;53.002;6.506;2022-11-04T16:50:15;9.75;;;2.47;;
64714;SDS011;51144;53.002;6.506;2022-11-04T16:52:41;20.45;;;1.27;;
64714;SDS011;51144;53.002;6.506;2022-11-04T16:55:07;9.48;;;0.85;;
64714;SDS011;51144;53.002;6.506;2022-11-04T16:57:33;5.15;;;0.30;;
64714;SDS011;51144;53.002;6.506;2022-11-04T16:59:59;8.25;;;0.57;;
64714;SDS011;51144;53.002;6.506;2022-11-04T17:02:27;8.77;;;0.40;;
64714;SDS011;51144;53.002;6.506;2022-11-04T17:04:55;5.88;;;0.82;;
64714;SDS011;51144;53.002;6.506;2022-11-04T17:07:22;8.25;;;0.30;;
64714;SDS011;51144;53.002;6.506;2022-11-04T17:09:48;8.90;;;0.50;;
64714;SDS011;51144;53.002;6.506;2022-11-04T17:12:13;8.13;;;0.73;;
64714;SDS011;51144;53.002;6.506;2022-11-04T17:14:39;7.70;;;0.82;;
64714;SDS011;51144;53.002;6.506;2022-11-04T17:17:05;4.63;;;0.50;;
64714;SDS011;51144;53.002;6.506;2022-11-04T17:19:31;8.02;;;1.00;;
64714;SDS011;51144;53.002;6.506;2022-11-04T17:21:56;10.77;;;1.15;;
64714;SDS011;51144;53.002;6.506;2022-11-04T17:24:24;5.72;;;0.52;;
64714;SDS011;51144;53.002;6.506;2022-11-04T17:26:50;5.15;;;0.50;;
64714;SDS011;51144;53.002;6.506;2022-11-04T17:29:15;4.32;;;0.90;;
64714;SDS011;51144;53.002;6.506;2022-11-04T17:31:41;4.75;;;0.60;;
64714;SDS011;51144;53.002;6.506;2022-11-04T17:34:07;5.80;;;0.77;;
64714;SDS011;51144;53.002;6.506;2022-11-04T17:36:33;7.32;;;0.77;;
64714;SDS011;51144;53.002;6.506;2022-11-04T17:39:00;7.10;;;1.00;;
64714;SDS011;51144;53.002;6.506;2022-11-04T17:41:25;9.10;;;0.80;;
64714;SDS011;51144;53.002;6.506;2022-11-04T17:44:09;5.78;;;1.35;;
64714;SDS011;51144;53.002;6.506;2022-11-04T17:46:35;7.30;;;2.17;;
64714;SDS011;51144;53.002;6.506;2022-11-04T17:49:11;5.45;;;0.73;;
64714;SDS011;51144;53.002;6.506;2022-11-04T17:51:42;8.63;;;0.70;;
64714;SDS011;51144;53.002;6.506;2022-11-04T17:54:09;7.30;;;1.00;;
64714;SDS011;51144;53.002;6.506;2022-11-04T17:56:36;6.30;;;0.70;;
64714;SDS011;51144;53.002;6.506;2022-11-04T17:59:03;9.20;;;1.08;;
64714;SDS011;51144;53.002;6.506;2022-11-04T18:01:29;8.75;;;0.68;;
64714;SDS011;51144;53.002;6.506;2022-11-04T18:03:56;5.53;;;0.75;;
64714;SDS011;51144;53.002;6.506;2022-11-04T18:06:22;11.45;;;0.75;;
64714;SDS011;51144;53.002;6.506;2022-11-04T18:08:50;2.70;;;0.40;;
64714;SDS011;51144;53.002;6.506;2022-11-04T18:11:18;7.63;;;0.82;;
64714;SDS011;51144;53.002;6.506;2022-11-04T18:14:02;8.02;;;0.70;;
64714;SDS011;51144;53.002;6.506;2022-11-04T18:16:28;4.55;;;0.57;;
64714;SDS011;51144;53.002;6.506;2022-11-04T18:18:55;6.97;;;0.70;;
64714;SDS011;51144;53.002;6.506;2022-11-04T18:21:22;9.82;;;1.63;;
64714;SDS011;51144;53.002;6.506;2022-11-04T18:23:47;8.80;;;1.13;;
64714;SDS011;51144;53.002;6.506;2022-11-04T18:26:13;10.45;;;1.20;;
64714;SDS011;51144;53.002;6.506;2022-11-04T18:28:39;9.00;;;0.82;;
64714;SDS011;51144;53.002;6.506;2022-11-04T18:31:08;8.20;;;0.35;;
64714;SDS011;51144;53.002;6.506;2022-11-04T18:33:35;6.25;;;0.98;;
64714;SDS011;51144;53.002;6.506;2022-11-04T18:36:02;8.25;;;1.02;;